Nemo, SD

8:40 PM MDT on August 28, 2014 (GMT -0600)
RAWS NEMO SD US | Change Station
CLOSE
Current Station
Personal Weather Station
Location: Nemo, SD
Elevation: 4644 ft
Nearby Weather Stations

Elev 4644 ft 44.19 °N, 103.51 °W | Updated 43 minutes ago

Partly Cloudy
Partly Cloudy
59 °F
Feels Like 59 °F
N
0
Wind Variable Wind from North
Gusts 0.0 mph

Today
High -- | Low -- °F
--% Chance of Precip.
Yesterday
High -- | Low -- °F
Precip. -- in
6:12 AM 7:37 PM
Waxing Crescent, 11% visible
Pressure 29.88 in
Visibility 10.0 miles
Clouds Clear
Dew Point 57 °F
Humidity 92%
Rainfall 0.20 in
Snow Depth Not available.
UV 0 out of 12
Pollen 8.00 out of 12
Air Quality Not available.
Flu Activity Not available.
METAR KRCA 290158Z AUTO 18005KT 10SM CLR 21/16 A2993 RMK AO2 SLP118 T02080162 $

More Conditions Fewer Conditions

Pressure 29.88 in
Visibility 10.0 miles
Clouds Clear
Dew Point 57 °F
Humidity 92%
Rainfall 0.20 in
Snow Depth Not available.
UV 0 out of 12
Pollen 8.00 out of 12
Air Quality Not available.
Flu Activity Not available.
METAR KRCA 290158Z AUTO 18005KT 10SM CLR 21/16 A2993 RMK AO2 SLP118 T02080162 $

More Conditions Fewer Conditions

10-Day Weather Forecast

Almanac

Astronomy

Aug. 28, 2014 Rise Set
Actual Time 6:12 AM MDT 7:37 PM MDT
Civil Twilight 5:42 AM MDT 8:07 PM MDT
Nautical Twilight 5:05 AM MDT 8:43 PM MDT
Astronomical Twilight 4:27 AM MDT 9:21 PM MDT
Moon 9:15 AM MDT (8/28) 8:53 PM MDT (8/28)
Length of Visible Light 14h 24m
Length of Day
13h 24m
Tomorrow will be 2m 54s shorter.
Waxing Crescent, 11% of the Moon is Illuminated
Today
Waxing Crescent
Sep 2
First Quarter
Sep 8
Full
Sep 15
Last Quarter
Sep 24
New

Today's Extremes

State Highs State Lows

Community

WunderPhotos

Upload Photos

1,748,133 photos uploaded!

Nearby

Snow Depth

Station Depth Elevation
Blind Park 0 in 6890 ft

Earthquake Activity

City Distance Mag. Time & Date
No recent earthquake activity has been reported nearby.
Minimum magnitude displayed is 2.5.

Coastal Water Temperatures

Place Temperature
No Stations Reporting

Nearby Weather Stations